Detalii statie SOPEMA [00001CFB]

Toti senzorii

Date Temperatura solului [C]Precipitatii [mm]Voltaj baterie [mV]Leaf Wetness [Min]HC Air temperature [C]HC Relative humidity [%]Punctul de roua [C]
medieminmaxsumaultimatimpmedieminmaxmediemediemin
2018-12-09 15:00:00 0.4 6854 3.53 3.41 3.63 0 0 0
2018-12-09 16:00:00 0.4 6854 3.24 2.98 3.6 0 0 0
2018-12-09 17:00:00 0 6826 2.66 2.11 2.97 0 0 0
2018-12-09 18:00:00 0 6826 1.95 1.74 2.05 0 0 0
2018-12-09 19:00:00 0 6816 1.25 0.91 1.7 0 0 0
2018-12-09 20:00:00 0 6816 1.29 1.02 1.52 0 0 0
2018-12-09 21:00:00 0 6806 0.91 0.44 1.35 0 0 0
2018-12-09 22:00:00 0 6806 0.75 0.36 1.08 0 0 0
2018-12-09 23:00:00 0 6806 -0.32 -1.11 1 0 0 0
2018-12-10 00:00:00 0 6806 -0.11 -0.83 0.43 0 0 0
2018-12-10 01:00:00 0 6796 0.44 0.16 0.88 0 0 0
2018-12-10 02:00:00 0 6796 1.08 0.92 1.17 0 0 0
2018-12-10 03:00:00 0 6796 1.05 0.96 1.21 0 0 0
2018-12-10 04:00:00 0 6796 1.09 0.99 1.21 0 0 0
2018-12-10 05:00:00 0 6806 1.11 1.06 1.16 0 0 0
2018-12-10 06:00:00 0 6796 1.02 0.9 1.1 0 0 0
2018-12-10 07:00:00 0.2 6806 0.93 0.85 0.99 0 0 0
2018-12-10 08:00:00 0 6796 1.11 0.94 1.34 0 0 0
2018-12-10 09:00:00 0 6796 1.72 1.3 2.06 0 0 0
2018-12-10 10:00:00 0 6816 2.09 2.02 2.17 0 0 0
2018-12-10 11:00:00 0 6826 2.11 2.01 2.27 0 0 0
2018-12-10 12:00:00 0 6834 2.3 2.14 2.48 0 0 0
2018-12-10 13:00:00 0 6854 1.79 1.51 2.1 0 0 0
2018-12-10 14:00:00 0 6844 2.11 1.91 2.37 0 0 0
2018-12-10 15:00:00 0 6834 1.78 1.55 2.15 0 0 0
2018-12-10 16:00:00 0 6806 1.64 1.51 1.74 0 0 0
2018-12-10 17:00:00 0 6786 1.66 1.58 1.74 0 0 0
2018-12-10 18:00:00 0 6786 1.63 1.55 1.73 0 0 0
2018-12-10 19:00:00 0 6786 1.05 0.7 1.5 0 0 0
2018-12-10 20:00:00 0 6786 0.54 0.48 0.7 0 0 0
2018-12-10 21:00:00 0 6786 0.58 0.5 0.65 0 0 0
2018-12-10 22:00:00 0 6786 0.62 0.58 0.67 0 0 0
2018-12-10 23:00:00 0 6786 0.71 0.66 0.79 0 0 0
2018-12-11 00:00:00 0 6786 0.68 0.6 0.8 0 0 0
2018-12-11 01:00:00 0 6806 0.08 -0.4 0.57 0 0 0
2018-12-11 02:00:00 0 6776 -0.77 -0.89 -0.48 0 0 0
2018-12-11 03:00:00 0 6776 -1.21 -1.39 -1.01 0 0 0
2018-12-11 04:00:00 0 6776 -1.11 -1.37 -0.9 0 0 0
2018-12-11 05:00:00 0 6776 -0.66 -0.86 -0.52 0 0 0
2018-12-11 06:00:00 0 6766 -0.52 -0.55 -0.47 0 0 0
2018-12-11 07:00:00 0 6776 -0.37 -0.45 -0.33 0 0 0
2018-12-11 08:00:00 0 6776 -0.2 -0.32 -0.11 0 0 0
2018-12-11 09:00:00 0 6776 0.21 -0.03 0.69 0 0 0
2018-12-11 10:00:00 0.2 6844 1.47 0.79 2.06 0 0 0
2018-12-11 11:00:00 0 6834 2.81 2.17 3.28 0 0 0
2018-12-11 12:00:00 0 6816 3.54 3.27 3.64 0 0 0
2018-12-11 13:00:00 0 6806 3.53 3.46 3.59 0 0 0
2018-12-11 14:00:00 0 6826 3.6 3.5 3.72 0 0 0